Time;durP1;ratioP1;P1;durP2;ratioP2;P2;SDS_P1;SDS_P2;PMS_P1;PMS_P2;Temp;Humidity;BMP_temperature;BMP_pressure;BME280_temperature;BME280_humidity;BME280_pressure;Samples;Min_cycle;Max_cycle;Signal;HPM_P1;HPM_P2
2022/11/29 00:01:33;;;;;;;29.52;21.08;;;;;;;;;;5094745;28;20203;-61
2022/11/29 00:04:01;;;;;;;37.60;23.58;;;;;;;;;;5094945;28;20195;-61
2022/11/29 00:06:29;;;;;;;40.40;23.98;;;;;;;;;;5095072;28;20195;-61
2022/11/29 00:08:57;;;;;;;34.95;25.20;;;;;;;;;;5094797;28;20223;-60
2022/11/29 00:14:10;;;;;;;32.83;22.50;;;;;;;;;;5094706;28;20193;-61
2022/11/29 00:16:39;;;;;;;40.42;22.83;;;;;;;;;;5094743;28;20560;-61
2022/11/29 00:19:06;;;;;;;35.83;22.30;;;;;;;;;;5094702;28;20550;-61
2022/11/29 00:21:33;;;;;;;43.58;25.45;;;;;;;;;;5094528;28;20187;-61
2022/11/29 00:24:00;;;;;;;39.05;24.20;;;;;;;;;;5094549;28;20190;-61
2022/11/29 00:26:27;;;;;;;34.00;22.05;;;;;;;;;;5094272;28;20647;-61
2022/11/29 00:28:54;;;;;;;35.08;22.98;;;;;;;;;;5094292;28;20552;-61
2022/11/29 00:31:22;;;;;;;35.50;23.02;;;;;;;;;;5094356;28;20218;-63
2022/11/29 00:33:50;;;;;;;34.58;23.35;;;;;;;;;;5094301;28;20274;-60
2022/11/29 00:36:17;;;;;;;34.38;23.85;;;;;;;;;;5094299;28;20187;-61
2022/11/29 00:38:45;;;;;;;39.50;24.92;;;;;;;;;;5094134;28;20198;-61
2022/11/29 00:41:12;;;;;;;36.25;23.08;;;;;;;;;;5094138;28;20191;-61
2022/11/29 00:43:39;;;;;;;33.30;22.25;;;;;;;;;;5094194;28;20271;-62
2022/11/29 00:46:06;;;;;;;30.88;22.45;;;;;;;;;;5094167;28;20554;-60
2022/11/29 00:48:33;;;;;;;33.38;23.63;;;;;;;;;;5093838;28;20555;-61
2022/11/29 00:51:02;;;;;;;37.15;23.80;;;;;;;;;;5093811;28;20246;-61
2022/11/29 00:53:29;;;;;;;36.25;23.63;;;;;;;;;;5093822;28;20277;-61
2022/11/29 00:55:56;;;;;;;30.00;22.75;;;;;;;;;;5093381;28;20225;-61
2022/11/29 00:58:23;;;;;;;34.13;23.30;;;;;;;;;;5093328;28;20733;-61
2022/11/29 01:00:50;;;;;;;32.38;22.58;;;;;;;;;;5094083;28;20195;-61
2022/11/29 01:03:17;;;;;;;37.50;23.83;;;;;;;;;;5093747;28;20218;-61
2022/11/29 01:05:44;;;;;;;36.50;24.55;;;;;;;;;;5093707;28;20605;-61
2022/11/29 01:08:13;;;;;;;35.80;23.35;;;;;;;;;;5093456;28;20285;-61
2022/11/29 01:10:40;;;;;;;38.25;25.08;;;;;;;;;;5093569;28;20223;-61
2022/11/29 01:13:07;;;;;;;38.95;24.73;;;;;;;;;;5093641;28;20597;-62
2022/11/29 01:15:34;;;;;;;34.72;23.02;;;;;;;;;;5093591;28;20201;-61
2022/11/29 01:18:00;;;;;;;36.10;23.95;;;;;;;;;;5093499;28;20232;-61
2022/11/29 01:20:28;;;;;;;36.08;23.15;;;;;;;;;;5093305;28;20222;-61
2022/11/29 01:22:55;;;;;;;36.45;24.50;;;;;;;;;;5093252;28;20266;-61
2022/11/29 01:25:23;;;;;;;39.83;26.20;;;;;;;;;;5093497;28;20194;-61
2022/11/29 01:27:50;;;;;;;37.95;26.13;;;;;;;;;;5093439;28;20195;-61
2022/11/29 01:30:17;;;;;;;35.40;23.27;;;;;;;;;;5093180;28;20200;-60
2022/11/29 01:32:44;;;;;;;35.75;24.38;;;;;;;;;;5093167;28;20317;-61
2022/11/29 01:35:11;;;;;;;34.05;23.92;;;;;;;;;;5093277;28;20192;-60
2022/11/29 01:37:37;;;;;;;39.13;24.33;;;;;;;;;;5093046;28;20225;-60
2022/11/29 01:40:05;;;;;;;36.88;23.77;;;;;;;;;;5093361;28;20806;-61
2022/11/29 01:42:33;;;;;;;38.33;24.90;;;;;;;;;;5093210;28;20277;-61
2022/11/29 01:45:02;;;;;;;40.55;24.00;;;;;;;;;;5093111;28;20191;-61
2022/11/29 01:47:29;;;;;;;38.15;24.40;;;;;;;;;;5092927;28;20788;-61
2022/11/29 01:49:56;;;;;;;35.35;23.65;;;;;;;;;;5092914;28;20193;-61
2022/11/29 01:52:25;;;;;;;34.47;23.83;;;;;;;;;;5093110;28;20222;-61
2022/11/29 01:54:53;;;;;;;35.53;24.08;;;;;;;;;;5093076;28;20282;-60
2022/11/29 01:57:20;;;;;;;34.85;23.58;;;;;;;;;;5093086;28;20619;-61
2022/11/29 01:59:50;;;;;;;39.33;24.20;;;;;;;;;;5092938;28;20234;-61
2022/11/29 02:02:19;;;;;;;38.65;24.55;;;;;;;;;;5092772;28;20201;-61
2022/11/29 02:04:47;;;;;;;38.78;24.60;;;;;;;;;;5092789;28;20202;-61
2022/11/29 02:07:14;;;;;;;37.75;24.95;;;;;;;;;;5093053;28;20198;-61
2022/11/29 02:09:40;;;;;;;37.88;25.13;;;;;;;;;;5096910;28;20192;-61
2022/11/29 02:12:12;;;;;;;45.83;26.48;;;;;;;;;;5096846;28;20313;-61
2022/11/29 02:14:56;;;;;;;35.83;24.85;;;;;;;;;;5097016;28;20200;-61
2022/11/29 02:17:26;;;;;;;32.67;22.85;;;;;;;;;;5097200;28;20226;-61
2022/11/29 02:20:20;;;;;;;37.88;23.63;;;;;;;;;;5097021;28;20194;-61
2022/11/29 02:22:51;;;;;;;38.33;23.92;;;;;;;;;;5072371;28;20665;-60
2022/11/29 02:25:36;;;;;;;37.17;24.27;;;;;;;;;;5096976;28;20194;-60
2022/11/29 02:28:22;;;;;;;37.10;25.10;;;;;;;;;;5096939;28;20210;-61
2022/11/29 02:31:02;;;;;;;36.08;24.98;;;;;;;;;;5096730;28;20222;-61
2022/11/29 02:33:53;;;;;;;39.85;24.83;;;;;;;;;;5096554;28;20281;-61
2022/11/29 02:36:28;;;;;;;40.95;24.25;;;;;;;;;;5096698;28;20191;-61
2022/11/29 02:39:07;;;;;;;37.58;24.67;;;;;;;;;;5096646;28;20192;-61
2022/11/29 02:41:45;;;;;;;41.28;25.48;;;;;;;;;;5096379;28;20230;-60
2022/11/29 02:44:23;;;;;;;32.90;23.95;;;;;;;;;;5096372;28;20536;-61
2022/11/29 02:46:55;;;;;;;37.03;25.35;;;;;;;;;;5096307;28;20575;-61
2022/11/29 02:49:32;;;;;;;37.40;25.50;;;;;;;;;;5096457;28;20191;-61
2022/11/29 02:52:00;;;;;;;36.92;24.40;;;;;;;;;;5096153;28;20220;-62
2022/11/29 02:54:29;;;;;;;40.72;25.70;;;;;;;;;;5096169;28;20194;-61
2022/11/29 02:56:58;;;;;;;36.95;25.02;;;;;;;;;;5096351;28;20186;-61
2022/11/29 02:59:34;;;;;;;38.97;25.60;;;;;;;;;;5096240;28;20621;-61
2022/11/29 03:02:03;;;;;;;35.83;24.58;;;;;;;;;;5096055;28;20194;-61
2022/11/29 03:04:35;;;;;;;39.22;25.08;;;;;;;;;;5095973;28;20281;-61
2022/11/29 03:07:04;;;;;;;40.45;25.10;;;;;;;;;;5095884;28;20281;-61
2022/11/29 03:09:37;;;;;;;38.80;25.75;;;;;;;;;;5096099;28;20214;-61
2022/11/29 03:12:10;;;;;;;38.22;24.90;;;;;;;;;;5096159;28;20214;-61
2022/11/29 03:14:42;;;;;;;35.00;24.17;;;;;;;;;;5095914;28;20187;-62
2022/11/29 03:17:13;;;;;;;39.47;24.88;;;;;;;;;;5095740;28;20545;-60
2022/11/29 03:19:49;;;;;;;42.70;26.90;;;;;;;;;;5094786;28;20282;-61
2022/11/29 03:22:21;;;;;;;37.95;25.10;;;;;;;;;;5095526;28;20668;-61
2022/11/29 03:24:54;;;;;;;39.33;26.23;;;;;;;;;;5095741;28;20319;-61
2022/11/29 03:27:23;;;;;;;37.72;24.85;;;;;;;;;;5095547;28;20187;-60
2022/11/29 03:29:53;;;;;;;31.88;24.08;;;;;;;;;;5095486;28;20198;-61
2022/11/29 03:32:23;;;;;;;38.00;25.35;;;;;;;;;;5095571;28;20680;-61
2022/11/29 03:34:56;;;;;;;45.25;26.10;;;;;;;;;;5095591;28;20194;-61
2022/11/29 03:37:27;;;;;;;42.50;26.33;;;;;;;;;;5095493;28;20197;-60
2022/11/29 03:39:58;;;;;;;43.67;26.83;;;;;;;;;;5095422;28;20194;-61
2022/11/29 03:42:26;;;;;;;36.95;24.30;;;;;;;;;;5095264;28;20286;-61
2022/11/29 03:44:56;;;;;;;41.30;27.67;;;;;;;;;;5095449;28;20223;-61
2022/11/29 03:47:26;;;;;;;37.60;24.08;;;;;;;;;;5095199;28;20221;-60
2022/11/29 03:49:57;;;;;;;37.20;25.45;;;;;;;;;;5095201;28;20184;-61
2022/11/29 03:52:27;;;;;;;40.60;25.55;;;;;;;;;;5095005;28;20680;-61
2022/11/29 03:54:57;;;;;;;36.67;25.42;;;;;;;;;;5094956;28;20223;-61
2022/11/29 03:57:31;;;;;;;41.47;26.92;;;;;;;;;;5095168;28;20286;-61
2022/11/29 04:00:02;;;;;;;40.47;27.55;;;;;;;;;;5095156;28;20572;-61
2022/11/29 04:02:55;;;;;;;38.90;25.33;;;;;;;;;;5094936;28;20609;-61
2022/11/29 04:05:43;;;;;;;38.15;24.95;;;;;;;;;;5094800;28;20201;-60
2022/11/29 04:08:29;;;;;;;42.88;26.58;;;;;;;;;;5094880;28;20301;-61
2022/11/29 04:11:04;;;;;;;42.83;25.23;;;;;;;;;;5094969;28;20657;-60
2022/11/29 04:13:50;;;;;;;35.75;25.02;;;;;;;;;;5094571;28;20229;-61
2022/11/29 04:16:27;;;;;;;39.15;25.50;;;;;;;;;;5094932;28;20653;-61
2022/11/29 04:19:15;;;;;;;39.30;26.98;;;;;;;;;;5094440;28;20709;-61
2022/11/29 04:21:56;;;;;;;40.70;26.70;;;;;;;;;;5077156;28;20190;-61
2022/11/29 04:24:36;;;;;;;42.40;26.23;;;;;;;;;;5094588;28;20829;-61
2022/11/29 04:27:22;;;;;;;42.15;26.48;;;;;;;;;;5094527;28;20194;-61
2022/11/29 04:29:57;;;;;;;38.60;24.38;;;;;;;;;;5094434;28;20202;-61
2022/11/29 04:32:43;;;;;;;46.33;26.33;;;;;;;;;;5094011;28;20602;-61
2022/11/29 04:35:21;;;;;;;34.85;25.67;;;;;;;;;;5094577;28;20277;-62
2022/11/29 04:37:59;;;;;;;38.13;24.50;;;;;;;;;;5094231;28;20202;-61
2022/11/29 04:40:43;;;;;;;36.25;25.38;;;;;;;;;;5094118;28;20189;-61
2022/11/29 04:43:16;;;;;;;40.45;25.15;;;;;;;;;;5094372;28;20190;-61
2022/11/29 04:45:49;;;;;;;35.72;24.30;;;;;;;;;;5094207;28;20285;-61
2022/11/29 04:48:24;;;;;;;36.38;25.08;;;;;;;;;;5094164;28;20279;-61
2022/11/29 04:50:56;;;;;;;39.42;25.67;;;;;;;;;;5093830;28;20645;-61
2022/11/29 04:53:33;;;;;;;32.47;23.88;;;;;;;;;;5093849;28;20218;-61
2022/11/29 04:56:06;;;;;;;37.03;25.70;;;;;;;;;;5094008;28;20273;-61
2022/11/29 04:58:38;;;;;;;38.35;25.15;;;;;;;;;;5093935;28;20248;-61
2022/11/29 05:01:08;;;;;;;36.53;24.38;;;;;;;;;;5093767;28;20281;-61
2022/11/29 05:03:38;;;;;;;41.42;24.80;;;;;;;;;;5095513;28;20287;-61
2022/11/29 05:06:11;;;;;;;42.75;25.05;;;;;;;;;;5095196;28;20669;-61
2022/11/29 05:08:45;;;;;;;35.08;24.23;;;;;;;;;;5094766;28;20226;-62
2022/11/29 05:11:16;;;;;;;35.95;24.60;;;;;;;;;;5095455;28;20190;-61
2022/11/29 05:13:49;;;;;;;37.55;24.80;;;;;;;;;;5095287;28;20223;-61
2022/11/29 05:16:25;;;;;;;37.17;25.23;;;;;;;;;;5094837;28;20191;-61
2022/11/29 05:18:58;;;;;;;35.75;23.67;;;;;;;;;;5095322;28;20208;-61
2022/11/29 05:21:30;;;;;;;41.97;26.45;;;;;;;;;;5095193;28;20282;-62
2022/11/29 05:24:02;;;;;;;35.15;24.13;;;;;;;;;;5094861;28;20255;-61
2022/11/29 05:26:31;;;;;;;37.45;25.45;;;;;;;;;;5094952;28;20202;-62
2022/11/29 05:29:05;;;;;;;36.70;24.52;;;;;;;;;;5094711;28;20247;-61
2022/11/29 05:31:43;;;;;;;33.58;24.92;;;;;;;;;;5095474;28;20664;-62
2022/11/29 05:34:24;;;;;;;38.42;25.05;;;;;;;;;;5095193;28;20612;-61
2022/11/29 05:36:57;;;;;;;37.95;25.33;;;;;;;;;;5094686;28;20247;-61
2022/11/29 05:39:33;;;;;;;35.05;23.75;;;;;;;;;;5095396;28;20639;-61
2022/11/29 05:42:09;;;;;;;36.92;24.05;;;;;;;;;;5094708;28;20191;-61
2022/11/29 05:44:40;;;;;;;36.30;23.25;;;;;;;;;;5094802;28;20258;-61
2022/11/29 05:47:11;;;;;;;40.33;24.90;;;;;;;;;;5094973;28;20217;-61
2022/11/29 05:49:40;;;;;;;34.85;23.85;;;;;;;;;;5094490;28;20251;-61
2022/11/29 05:52:23;;;;;;;42.28;25.40;;;;;;;;;;5094115;28;20202;-61
2022/11/29 05:54:56;;;;;;;34.55;24.50;;;;;;;;;;5094713;28;20285;-61
2022/11/29 05:57:28;;;;;;;39.95;25.73;;;;;;;;;;5095012;28;20646;-61
2022/11/29 05:59:57;;;;;;;41.03;25.02;;;;;;;;;;5094224;28;20729;-61
2022/11/29 06:02:31;;;;;;;41.08;25.02;;;;;;;;;;5094724;28;20198;-61
2022/11/29 06:05:05;;;;;;;34.55;24.38;;;;;;;;;;5094655;28;20261;-61
2022/11/29 06:07:38;;;;;;;38.35;24.50;;;;;;;;;;5094531;28;20195;-61
2022/11/29 06:10:06;;;;;;;37.55;24.67;;;;;;;;;;5094253;28;20219;-61
2022/11/29 06:12:36;;;;;;;33.45;23.52;;;;;;;;;;5093910;28;20207;-62
2022/11/29 06:15:33;;;;;;;36.85;23.42;;;;;;;;;;5094254;28;20198;-61
2022/11/29 06:18:08;;;;;;;40.72;25.45;;;;;;;;;;5051059;28;20196;-61
2022/11/29 06:20:50;;;;;;;36.58;23.27;;;;;;;;;;5086123;28;20190;-61
2022/11/29 06:23:23;;;;;;;34.72;23.25;;;;;;;;;;5094090;28;20192;-61
2022/11/29 06:26:01;;;;;;;38.13;24.70;;;;;;;;;;5093882;28;20546;-61
2022/11/29 06:28:33;;;;;;;39.47;24.23;;;;;;;;;;5093387;28;20198;-61
2022/11/29 06:31:03;;;;;;;37.90;24.15;;;;;;;;;;5093925;28;20549;-61
2022/11/29 06:33:35;;;;;;;37.38;24.42;;;;;;;;;;5093211;28;20218;-60
2022/11/29 06:36:10;;;;;;;33.05;24.00;;;;;;;;;;5093541;28;20598;-61
2022/11/29 06:38:37;;;;;;;36.10;22.92;;;;;;;;;;5093246;28;20194;-61
2022/11/29 06:41:05;;;;;;;39.17;24.48;;;;;;;;;;5093267;28;20536;-61
2022/11/29 06:43:32;;;;;;;34.88;23.23;;;;;;;;;;5093401;28;20249;-62
2022/11/29 06:46:02;;;;;;;35.83;22.20;;;;;;;;;;5092906;28;20198;-61
2022/11/29 06:48:31;;;;;;;35.70;23.48;;;;;;;;;;5093075;28;20253;-61
2022/11/29 06:51:04;;;;;;;40.53;24.35;;;;;;;;;;5093378;28;20191;-61
2022/11/29 06:53:36;;;;;;;39.70;25.17;;;;;;;;;;5093334;28;20211;-61
2022/11/29 06:56:08;;;;;;;42.28;24.67;;;;;;;;;;5095718;28;20641;-62
2022/11/29 06:58:42;;;;;;;36.05;25.27;;;;;;;;;;5096893;28;20199;-61
2022/11/29 07:01:15;;;;;;;37.47;24.25;;;;;;;;;;5096373;28;20714;-61
2022/11/29 07:03:53;;;;;;;38.17;25.42;;;;;;;;;;5096800;28;20276;-61
2022/11/29 07:06:23;;;;;;;38.88;24.23;;;;;;;;;;5096686;28;20280;-61
2022/11/29 07:08:53;;;;;;;35.63;25.35;;;;;;;;;;5096628;28;20588;-61
2022/11/29 07:11:20;;;;;;;37.65;26.20;;;;;;;;;;5097004;28;20227;-61
2022/11/29 07:13:48;;;;;;;40.60;25.70;;;;;;;;;;5096483;28;20222;-61
2022/11/29 07:16:18;;;;;;;33.47;23.77;;;;;;;;;;5096719;28;20238;-61
2022/11/29 07:18:48;;;;;;;36.72;24.40;;;;;;;;;;5096674;28;20283;-61
2022/11/29 07:21:19;;;;;;;37.83;25.20;;;;;;;;;;5096382;28;20263;-61
2022/11/29 07:23:51;;;;;;;37.08;23.23;;;;;;;;;;5097212;28;20218;-61
2022/11/29 07:26:21;;;;;;;33.90;22.63;;;;;;;;;;5096312;28;20642;-61
2022/11/29 07:28:53;;;;;;;33.45;22.60;;;;;;;;;;5096700;28;20201;-62
2022/11/29 07:31:23;;;;;;;35.42;23.73;;;;;;;;;;5096802;28;20244;-61
2022/11/29 07:33:55;;;;;;;33.33;21.48;;;;;;;;;;5096334;28;20215;-61
2022/11/29 07:36:26;;;;;;;37.67;24.20;;;;;;;;;;5096582;28;20241;-62
2022/11/29 07:38:59;;;;;;;46.90;24.83;;;;;;;;;;5096506;28;20197;-61
2022/11/29 07:41:28;;;;;;;32.67;22.02;;;;;;;;;;5096168;28;20190;-61
2022/11/29 07:43:59;;;;;;;40.72;24.10;;;;;;;;;;5096386;28;20222;-61
2022/11/29 07:46:27;;;;;;;36.63;24.65;;;;;;;;;;5096409;28;20217;-61
2022/11/29 07:48:54;;;;;;;37.30;23.35;;;;;;;;;;5096430;28;20194;-61
2022/11/29 07:51:21;;;;;;;34.45;22.20;;;;;;;;;;5096205;28;20243;-61
2022/11/29 07:53:48;;;;;;;35.88;23.38;;;;;;;;;;5096170;28;20218;-61
2022/11/29 07:56:17;;;;;;;35.78;22.58;;;;;;;;;;5096329;28;20613;-61
2022/11/29 07:58:44;;;;;;;36.63;22.77;;;;;;;;;;5096543;28;20557;-62
2022/11/29 08:01:11;;;;;;;34.85;23.58;;;;;;;;;;5097062;28;20546;-61
2022/11/29 08:03:40;;;;;;;34.03;22.02;;;;;;;;;;5096753;28;20195;-61
2022/11/29 08:06:07;;;;;;;35.75;22.17;;;;;;;;;;5095703;28;20191;-61
2022/11/29 08:08:34;;;;;;;34.17;23.70;;;;;;;;;;5095364;28;20194;-61
2022/11/29 08:11:01;;;;;;;39.25;24.30;;;;;;;;;;5099189;28;20273;-61
2022/11/29 08:13:30;;;;;;;35.30;23.08;;;;;;;;;;5095789;28;20215;-60
2022/11/29 08:15:57;;;;;;;37.00;24.60;;;;;;;;;;5109858;28;20189;-60
2022/11/29 08:18:24;;;;;;;35.67;24.08;;;;;;;;;;5116831;28;20191;-60
2022/11/29 08:20:51;;;;;;;38.08;24.40;;;;;;;;;;5116266;28;20281;-60
2022/11/29 08:23:18;;;;;;;36.08;23.38;;;;;;;;;;5116378;28;20618;-60
2022/11/29 08:25:45;;;;;;;32.88;21.75;;;;;;;;;;5116567;28;20652;-60
2022/11/29 08:28:12;;;;;;;34.47;21.80;;;;;;;;;;5115483;28;20189;-60
2022/11/29 08:30:40;;;;;;;35.25;22.58;;;;;;;;;;5115506;28;20725;-60
2022/11/29 08:33:07;;;;;;;36.72;22.65;;;;;;;;;;5115443;28;20303;-60
2022/11/29 08:35:35;;;;;;;36.97;25.23;;;;;;;;;;5109122;28;20244;-60
2022/11/29 08:38:03;;;;;;;36.13;23.33;;;;;;;;;;5080167;28;20192;-60
2022/11/29 08:40:30;;;;;;;34.20;22.42;;;;;;;;;;5074994;28;20195;-60
2022/11/29 08:42:58;;;;;;;40.45;24.77;;;;;;;;;;5074826;28;20223;-60
2022/11/29 08:45:25;;;;;;;34.15;23.08;;;;;;;;;;5074480;28;20195;-61
2022/11/29 08:47:53;;;;;;;35.10;21.95;;;;;;;;;;5074402;28;20247;-60
2022/11/29 08:50:21;;;;;;;33.15;22.35;;;;;;;;;;5075137;28;20287;-60
2022/11/29 08:55:34;;;;;;;35.05;22.77;;;;;;;;;;5074861;28;20205;-60
2022/11/29 08:58:02;;;;;;;33.63;23.70;;;;;;;;;;5075374;28;20558;-59
2022/11/29 09:00:30;;;;;;;40.67;24.25;;;;;;;;;;5074699;28;20223;-59
2022/11/29 09:03:58;;;;;;;40.33;25.05;;;;;;;;;;5075051;28;20610;-60
2022/11/29 09:05:46;;;;;;;36.80;22.58;;;;;;;;;;5075716;28;20662;-60
2022/11/29 09:08:13;;;;;;;35.22;24.35;;;;;;;;;;5083284;28;20194;-59
2022/11/29 09:10:40;;;;;;;34.78;22.35;;;;;;;;;;5079499;28;20270;-61
2022/11/29 09:13:07;;;;;;;48.22;24.27;;;;;;;;;;5083802;28;20214;-60
2022/11/29 09:15:34;;;;;;;37.83;23.00;;;;;;;;;;5083001;28;20523;-65
2022/11/29 09:18:04;;;;;;;32.40;21.52;;;;;;;;;;5092997;28;20643;-62
2022/11/29 09:20:31;;;;;;;33.45;23.02;;;;;;;;;;5100346;28;20530;-61
2022/11/29 09:22:58;;;;;;;33.42;23.23;;;;;;;;;;5093261;28;20197;-60
2022/11/29 09:25:25;;;;;;;36.63;22.42;;;;;;;;;;5073995;28;20204;-61
2022/11/29 09:27:52;;;;;;;34.50;22.35;;;;;;;;;;5073519;28;20228;-62
2022/11/29 09:30:19;;;;;;;34.20;23.27;;;;;;;;;;5073484;28;20234;-59
2022/11/29 09:32:46;;;;;;;36.53;22.50;;;;;;;;;;5074447;28;20196;-60
2022/11/29 09:35:15;;;;;;;34.28;23.27;;;;;;;;;;5075073;28;20703;-59
2022/11/29 09:37:42;;;;;;;37.13;23.85;;;;;;;;;;5093904;28;20281;-59
2022/11/29 09:40:16;;;;;;;32.92;22.33;;;;;;;;;;5094230;28;20198;-60
2022/11/29 09:42:48;;;;;;;34.35;23.35;;;;;;;;;;5093893;28;20195;-60
2022/11/29 09:45:17;;;;;;;33.13;22.90;;;;;;;;;;5094139;28;20260;-61
2022/11/29 09:47:56;;;;;;;41.03;22.85;;;;;;;;;;5094087;28;20709;-61
2022/11/29 09:50:28;;;;;;;44.28;24.75;;;;;;;;;;5094044;28;20191;-60
2022/11/29 09:53:01;;;;;;;36.08;22.95;;;;;;;;;;5094027;28;20188;-69
2022/11/29 09:55:38;;;;;;;34.17;23.33;;;;;;;;;;5093889;28;20215;-69
2022/11/29 09:58:07;;;;;;;33.88;22.55;;;;;;;;;;5094852;28;20191;-61
2022/11/29 10:00:36;;;;;;;37.28;23.95;;;;;;;;;;5084601;28;20701;-62
2022/11/29 10:03:10;;;;;;;37.78;23.13;;;;;;;;;;5073307;28;20193;-58
2022/11/29 10:05:41;;;;;;;33.90;23.02;;;;;;;;;;5073690;28;20233;-59
2022/11/29 10:08:10;;;;;;;37.10;22.80;;;;;;;;;;5074128;28;20264;-58
2022/11/29 10:10:40;;;;;;;35.33;24.38;;;;;;;;;;5076705;28;20184;-59
2022/11/29 10:13:14;;;;;;;38.05;24.02;;;;;;;;;;5101705;28;20561;-57
2022/11/29 10:15:43;;;;;;;39.08;23.75;;;;;;;;;;5073993;28;20218;-65
2022/11/29 10:18:13;;;;;;;34.80;23.37;;;;;;;;;;5093511;28;20199;-65
2022/11/29 10:20:43;;;;;;;41.58;22.20;;;;;;;;;;5093682;28;20449;-64
2022/11/29 10:23:16;;;;;;;35.17;22.60;;;;;;;;;;5095642;28;20191;-60
2022/11/29 10:25:46;;;;;;;29.45;20.95;;;;;;;;;;5084274;28;20199;-59
2022/11/29 10:28:15;;;;;;;33.22;23.73;;;;;;;;;;5076182;28;20207;-60
2022/11/29 10:30:43;;;;;;;35.38;22.83;;;;;;;;;;5085467;28;20200;-59
2022/11/29 10:33:16;;;;;;;35.45;24.08;;;;;;;;;;5077176;28;20561;-59
2022/11/29 10:35:47;;;;;;;35.65;22.73;;;;;;;;;;5086948;28;20302;-59
2022/11/29 10:38:14;;;;;;;35.17;22.50;;;;;;;;;;5081209;28;20222;-59
2022/11/29 10:40:44;;;;;;;34.03;23.52;;;;;;;;;;5076557;28;20199;-59
2022/11/29 10:43:11;;;;;;;36.58;23.65;;;;;;;;;;5077795;28;20195;-59
2022/11/29 10:45:39;;;;;;;33.67;22.98;;;;;;;;;;5077748;28;20192;-59
2022/11/29 10:48:08;;;;;;;35.42;22.13;;;;;;;;;;5077904;28;20584;-59
2022/11/29 10:50:35;;;;;;;37.22;23.98;;;;;;;;;;5076404;28;20213;-59
2022/11/29 10:53:06;;;;;;;39.50;23.20;;;;;;;;;;5095771;28;20187;-59
2022/11/29 10:55:36;;;;;;;36.95;23.65;;;;;;;;;;5097291;28;20690;-59
2022/11/29 10:58:11;;;;;;;36.20;23.83;;;;;;;;;;5088251;28;20665;-60
2022/11/29 11:00:51;;;;;;;36.08;24.33;;;;;;;;;;5077085;28;20194;-60
2022/11/29 11:03:19;;;;;;;37.20;23.17;;;;;;;;;;5081985;28;20194;-60
2022/11/29 11:05:57;;;;;;;36.35;22.67;;;;;;;;;;5081890;28;20196;-60
2022/11/29 11:08:28;;;;;;;30.90;21.83;;;;;;;;;;5082781;28;20188;-64
2022/11/29 11:10:56;;;;;;;40.28;23.95;;;;;;;;;;5092102;28;20625;-63
2022/11/29 11:13:24;;;;;;;35.97;22.95;;;;;;;;;;5096079;28;20187;-60
2022/11/29 11:15:56;;;;;;;32.42;22.48;;;;;;;;;;5096717;28;20328;-59
2022/11/29 11:18:25;;;;;;;34.92;23.67;;;;;;;;;;5103221;28;20228;-59
2022/11/29 11:20:53;;;;;;;40.80;22.30;;;;;;;;;;5117288;28;20201;-60
2022/11/29 11:23:25;;;;;;;35.22;23.50;;;;;;;;;;5116993;28;20284;-61
2022/11/29 11:26:01;;;;;;;37.35;25.55;;;;;;;;;;5109325;28;20194;-60
2022/11/29 11:28:30;;;;;;;33.38;23.13;;;;;;;;;;5096479;28;20629;-63
2022/11/29 11:30:58;;;;;;;32.70;23.00;;;;;;;;;;5096825;28;20584;-61
2022/11/29 11:33:26;;;;;;;37.55;23.02;;;;;;;;;;5089323;28;20198;-62
2022/11/29 11:36:04;;;;;;;40.42;25.48;;;;;;;;;;5085166;28;20242;-63
2022/11/29 11:38:33;;;;;;;37.45;24.52;;;;;;;;;;5081150;28;20261;-63
2022/11/29 11:41:16;;;;;;;43.25;25.40;;;;;;;;;;5074394;28;20195;-64
2022/11/29 11:43:43;;;;;;;35.42;22.67;;;;;;;;;;5075300;28;20202;-60
2022/11/29 11:46:10;;;;;;;35.47;24.20;;;;;;;;;;5082680;28;20275;-59
2022/11/29 11:48:41;;;;;;;36.43;22.70;;;;;;;;;;5079498;28;20706;-59
2022/11/29 11:51:12;;;;;;;29.50;20.40;;;;;;;;;;5073883;28;20455;-62
2022/11/29 11:53:40;;;;;;;43.83;24.10;;;;;;;;;;5074119;28;20227;-62
2022/11/29 11:56:09;;;;;;;34.83;22.80;;;;;;;;;;5074790;28;20486;-61
2022/11/29 11:58:38;;;;;;;38.72;23.83;;;;;;;;;;5075467;28;20249;-62
2022/11/29 12:01:15;;;;;;;33.78;23.05;;;;;;;;;;5075608;28;20191;-60
2022/11/29 12:03:48;;;;;;;34.15;22.35;;;;;;;;;;5099147;28;20229;-61
2022/11/29 12:06:35;;;;;;;35.00;22.58;;;;;;;;;;5116410;28;20615;-67
2022/11/29 12:09:03;;;;;;;34.17;24.10;;;;;;;;;;5116233;28;20320;-60
2022/11/29 12:11:34;;;;;;;32.83;22.70;;;;;;;;;;5115779;28;20213;-64
2022/11/29 12:14:02;;;;;;;34.67;23.23;;;;;;;;;;5115433;28;20286;-59
2022/11/29 12:16:32;;;;;;;34.50;23.85;;;;;;;;;;5115000;28;20194;-59
2022/11/29 12:19:02;;;;;;;33.55;23.55;;;;;;;;;;5116138;28;20560;-60
2022/11/29 12:21:32;;;;;;;35.22;24.73;;;;;;;;;;5116369;28;20282;-60
2022/11/29 12:24:02;;;;;;;35.63;24.85;;;;;;;;;;5116091;28;20283;-62
2022/11/29 12:26:31;;;;;;;36.15;23.40;;;;;;;;;;5116487;27;20190;-61
2022/11/29 12:29:00;;;;;;;36.40;25.10;;;;;;;;;;5115395;28;20200;-60
2022/11/29 12:31:36;;;;;;;36.43;22.60;;;;;;;;;;5114946;28;20453;-61
2022/11/29 12:34:08;;;;;;;34.97;24.80;;;;;;;;;;5115527;28;20883;-59
2022/11/29 12:36:38;;;;;;;38.90;22.13;;;;;;;;;;5115340;28;20191;-62
2022/11/29 12:39:13;;;;;;;34.05;23.73;;;;;;;;;;5114952;28;20240;-63
2022/11/29 12:41:45;;;;;;;37.78;24.85;;;;;;;;;;5115030;28;20277;-60
2022/11/29 12:44:18;;;;;;;33.13;23.70;;;;;;;;;;5114893;28;20267;-60
2022/11/29 12:46:48;;;;;;;35.75;23.98;;;;;;;;;;5115209;28;20240;-59
2022/11/29 12:49:18;;;;;;;32.47;22.33;;;;;;;;;;5112769;28;20589;-63
2022/11/29 12:51:50;;;;;;;36.03;23.70;;;;;;;;;;5081845;28;20265;-62
2022/11/29 12:54:35;;;;;;;34.05;24.90;;;;;;;;;;5076563;28;20235;-62
2022/11/29 12:57:07;;;;;;;35.78;24.38;;;;;;;;;;5067922;28;20279;-62
2022/11/29 12:59:45;;;;;;;40.47;23.23;;;;;;;;;;5074712;28;20199;-62
2022/11/29 13:02:21;;;;;;;34.50;23.23;;;;;;;;;;5074511;28;20191;-62
2022/11/29 13:04:54;;;;;;;39.15;24.10;;;;;;;;;;5074286;28;20541;-62
2022/11/29 13:07:25;;;;;;;32.47;23.00;;;;;;;;;;5074508;28;20287;-62
2022/11/29 13:09:58;;;;;;;34.88;23.70;;;;;;;;;;5074054;28;20193;-62
2022/11/29 13:12:31;;;;;;;41.83;27.13;;;;;;;;;;5074051;28;20287;-62
2022/11/29 13:15:02;;;;;;;41.25;24.83;;;;;;;;;;5073858;28;20488;-62
2022/11/29 13:17:35;;;;;;;39.88;24.48;;;;;;;;;;5074131;28;20246;-62
2022/11/29 13:20:04;;;;;;;33.75;23.52;;;;;;;;;;5074662;28;20558;-62
2022/11/29 13:22:37;;;;;;;38.58;26.67;;;;;;;;;;5074176;28;20716;-62
2022/11/29 13:25:06;;;;;;;33.63;23.92;;;;;;;;;;5074238;28;20212;-62
2022/11/29 13:27:35;;;;;;;39.88;26.05;;;;;;;;;;5074411;28;20604;-62
2022/11/29 13:30:04;;;;;;;45.43;27.30;;;;;;;;;;5074067;28;20194;-62
2022/11/29 13:32:35;;;;;;;42.15;27.30;;;;;;;;;;5073758;28;20458;-62
2022/11/29 13:35:03;;;;;;;40.97;26.05;;;;;;;;;;5074088;28;20304;-62
2022/11/29 13:37:33;;;;;;;34.88;24.98;;;;;;;;;;5073443;28;20206;-61
2022/11/29 13:40:05;;;;;;;37.92;24.15;;;;;;;;;;5073434;28;20380;-61
2022/11/29 13:42:38;;;;;;;33.58;25.63;;;;;;;;;;5073786;28;20202;-61
2022/11/29 13:45:13;;;;;;;38.22;25.33;;;;;;;;;;5074241;28;20202;-62
2022/11/29 13:47:49;;;;;;;39.00;24.40;;;;;;;;;;5073586;28;20223;-62
2022/11/29 13:50:31;;;;;;;36.73;24.53;;;;;;;;;;5073647;28;20446;-62
2022/11/29 13:53:03;;;;;;;40.17;27.03;;;;;;;;;;5074071;28;20454;-61
2022/11/29 13:55:33;;;;;;;36.77;24.80;;;;;;;;;;5074100;28;20893;-62
2022/11/29 13:58:05;;;;;;;37.37;25.10;;;;;;;;;;5074174;28;20502;-61
2022/11/29 14:00:38;;;;;;;36.35;24.70;;;;;;;;;;5073905;28;20450;-62
2022/11/29 14:03:21;;;;;;;38.17;25.43;;;;;;;;;;5073342;28;20288;-62
2022/11/29 14:05:49;;;;;;;36.17;26.50;;;;;;;;;;5077806;28;20451;-61
2022/11/29 14:08:26;;;;;;;37.15;24.75;;;;;;;;;;5077441;28;20452;-62
2022/11/29 14:10:55;;;;;;;35.57;24.57;;;;;;;;;;5077316;28;20199;-61
2022/11/29 14:13:23;;;;;;;39.58;23.75;;;;;;;;;;5077743;28;20493;-61
2022/11/29 14:16:00;;;;;;;39.20;24.60;;;;;;;;;;5077052;28;20736;-61
2022/11/29 14:18:46;;;;;;;36.00;25.80;;;;;;;;;;5077080;28;20517;-62
2022/11/29 14:21:13;;;;;;;37.75;24.92;;;;;;;;;;5077534;28;20198;-62
2022/11/29 14:23:40;;;;;;;38.75;25.63;;;;;;;;;;5077336;28;20189;-62
2022/11/29 14:26:21;;;;;;;38.97;24.20;;;;;;;;;;5076936;28;20257;-62
2022/11/29 14:28:48;;;;;;;41.13;26.33;;;;;;;;;;5077235;28;20460;-62
2022/11/29 14:31:46;;;;;;;38.13;24.30;;;;;;;;;;5077040;28;20454;-62
2022/11/29 14:34:15;;;;;;;36.67;25.63;;;;;;;;;;5077237;28;21032;-61
2022/11/29 14:36:47;;;;;;;38.47;22.97;;;;;;;;;;5077123;28;20213;-62
2022/11/29 14:39:33;;;;;;;38.75;25.55;;;;;;;;;;5077518;28;20461;-62
2022/11/29 14:42:15;;;;;;;35.30;23.52;;;;;;;;;;5077217;28;20196;-62
2022/11/29 14:44:51;;;;;;;35.30;24.85;;;;;;;;;;5077002;28;20199;-61
2022/11/29 14:47:25;;;;;;;33.43;24.33;;;;;;;;;;5076860;28;20229;-62